Aviation Digital Data Service (ADDS)

Output produced by METARs form (0355 UTC 01 September 2015)
found at http://aviationweather.gov/adds/metars/
 
KCLE 010257Z 0103/0206 17003KT P6SM SCT040 
     FM010800 18003KT 4SM BR SKC 
     FM011300 24006KT P6SM SCT040 
     FM011700 30008KT P6SM SCT050 
     FM020200 20003KT P6SM SKC